sensor_id;sensor_type;location;lat;lon;timestamp;pressure;altitude;pressure_sealevel;temperature;humidity
44453;BME280;30155;52.164;21.236;2023-05-18T00:01:44;101250.29;;;8.51;75.88
44453;BME280;30155;52.164;21.236;2023-05-18T00:06:37;101251.02;;;8.48;75.80
44453;BME280;30155;52.164;21.236;2023-05-18T00:11:30;101251.61;;;8.41;75.98
44453;BME280;30155;52.164;21.236;2023-05-18T00:16:24;101257.08;;;8.34;75.95
44453;BME280;30155;52.164;21.236;2023-05-18T00:21:17;101250.65;;;8.28;75.85
44453;BME280;30155;52.164;21.236;2023-05-18T00:26:10;101255.98;;;8.22;76.10
44453;BME280;30155;52.164;21.236;2023-05-18T00:31:05;101251.94;;;8.16;76.05
44453;BME280;30155;52.164;21.236;2023-05-18T00:35:58;101247.61;;;8.10;76.22
44453;BME280;30155;52.164;21.236;2023-05-18T00:40:51;101249.81;;;8.04;76.20
44453;BME280;30155;52.164;21.236;2023-05-18T00:45:43;101256.42;;;7.95;76.53
44453;BME280;30155;52.164;21.236;2023-05-18T00:50:36;101264.81;;;7.89;76.61
44453;BME280;30155;52.164;21.236;2023-05-18T00:55:29;101276.98;;;7.77;76.84
44453;BME280;30155;52.164;21.236;2023-05-18T01:00:23;101285.17;;;7.61;77.38
44453;BME280;30155;52.164;21.236;2023-05-18T01:05:16;101287.69;;;7.55;77.83
44453;BME280;30155;52.164;21.236;2023-05-18T01:10:11;101288.80;;;7.52;78.20
44453;BME280;30155;52.164;21.236;2023-05-18T01:15:09;101290.31;;;7.47;78.09
44453;BME280;30155;52.164;21.236;2023-05-18T01:20:16;101288.50;;;7.49;78.28
44453;BME280;30155;52.164;21.236;2023-05-18T01:25:17;101292.41;;;7.48;78.45
44453;BME280;30155;52.164;21.236;2023-05-18T01:30:15;101296.92;;;7.43;78.44
44453;BME280;30155;52.164;21.236;2023-05-18T01:35:08;101306.75;;;7.35;78.52
44453;BME280;30155;52.164;21.236;2023-05-18T01:40:03;101308.48;;;7.26;78.71
44453;BME280;30155;52.164;21.236;2023-05-18T01:45:06;101308.52;;;7.27;79.05
44453;BME280;30155;52.164;21.236;2023-05-18T01:50:05;101305.41;;;7.32;79.13
44453;BME280;30155;52.164;21.236;2023-05-18T01:55:03;101305.77;;;7.32;79.20
44453;BME280;30155;52.164;21.236;2023-05-18T01:59:58;101311.17;;;7.29;79.61
44453;BME280;30155;52.164;21.236;2023-05-18T02:04:51;101316.56;;;7.30;79.57
44453;BME280;30155;52.164;21.236;2023-05-18T02:09:45;101317.63;;;7.27;79.50
44453;BME280;30155;52.164;21.236;2023-05-18T02:14:38;101316.04;;;7.25;79.62
44453;BME280;30155;52.164;21.236;2023-05-18T02:19:31;101316.31;;;7.28;79.38
44453;BME280;30155;52.164;21.236;2023-05-18T02:24:24;101321.45;;;7.31;79.31
44453;BME280;30155;52.164;21.236;2023-05-18T02:29:17;101326.14;;;7.28;78.93
44453;BME280;30155;52.164;21.236;2023-05-18T02:34:09;101330.64;;;7.29;78.98
44453;BME280;30155;52.164;21.236;2023-05-18T02:39:03;101330.42;;;7.28;79.37
44453;BME280;30155;52.164;21.236;2023-05-18T02:43:56;101326.75;;;7.26;79.60
44453;BME280;30155;52.164;21.236;2023-05-18T02:48:50;101327.58;;;7.20;79.73
44453;BME280;30155;52.164;21.236;2023-05-18T02:53:43;101326.76;;;7.17;79.49
44453;BME280;30155;52.164;21.236;2023-05-18T02:58:38;101330.16;;;7.16;79.54
44453;BME280;30155;52.164;21.236;2023-05-18T03:03:34;101340.89;;;7.17;79.73
44453;BME280;30155;52.164;21.236;2023-05-18T03:08:27;101343.79;;;7.16;79.87
44453;BME280;30155;52.164;21.236;2023-05-18T03:13:22;101349.91;;;7.10;79.97
44453;BME280;30155;52.164;21.236;2023-05-18T03:18:19;101355.75;;;7.10;79.68
44453;BME280;30155;52.164;21.236;2023-05-18T03:23:12;101356.52;;;7.12;79.98
44453;BME280;30155;52.164;21.236;2023-05-18T03:28:06;101357.83;;;7.14;80.08
44453;BME280;30155;52.164;21.236;2023-05-18T03:33:00;101356.79;;;7.18;79.95
44453;BME280;30155;52.164;21.236;2023-05-18T03:37:54;101364.45;;;7.20;79.84
44453;BME280;30155;52.164;21.236;2023-05-18T03:42:47;101364.64;;;7.25;79.93
44453;BME280;30155;52.164;21.236;2023-05-18T03:47:40;101372.41;;;7.29;79.50
44453;BME280;30155;52.164;21.236;2023-05-18T03:52:34;101376.38;;;7.30;79.32
44453;BME280;30155;52.164;21.236;2023-05-18T03:57:30;101386.49;;;7.37;79.24
44453;BME280;30155;52.164;21.236;2023-05-18T04:02:24;101387.27;;;7.46;78.95
44453;BME280;30155;52.164;21.236;2023-05-18T04:07:18;101385.92;;;7.61;78.95
44453;BME280;30155;52.164;21.236;2023-05-18T04:12:12;101390.49;;;7.76;78.56
44453;BME280;30155;52.164;21.236;2023-05-18T04:17:05;101394.79;;;7.89;78.15
44453;BME280;30155;52.164;21.236;2023-05-18T04:22:00;101397.36;;;7.97;77.64
44453;BME280;30155;52.164;21.236;2023-05-18T04:26:55;101403.98;;;8.09;77.64
44453;BME280;30155;52.164;21.236;2023-05-18T04:31:50;101408.17;;;8.19;77.24
44453;BME280;30155;52.164;21.236;2023-05-18T04:36:44;101410.75;;;8.32;77.02
44453;BME280;30155;52.164;21.236;2023-05-18T04:41:37;101411.61;;;8.41;76.57
44453;BME280;30155;52.164;21.236;2023-05-18T04:46:33;101413.36;;;8.46;75.96
44453;BME280;30155;52.164;21.236;2023-05-18T04:51:31;101414.53;;;8.54;75.76
44453;BME280;30155;52.164;21.236;2023-05-18T04:56:25;101418.23;;;8.61;75.42
44453;BME280;30155;52.164;21.236;2023-05-18T05:01:18;101420.45;;;8.60;74.88
44453;BME280;30155;52.164;21.236;2023-05-18T05:06:12;101420.19;;;8.68;74.99
44453;BME280;30155;52.164;21.236;2023-05-18T05:11:04;101427.38;;;8.75;74.85
44453;BME280;30155;52.164;21.236;2023-05-18T05:15:58;101432.58;;;8.85;74.93
44453;BME280;30155;52.164;21.236;2023-05-18T05:20:52;101432.80;;;8.97;74.75
44453;BME280;30155;52.164;21.236;2023-05-18T05:25:45;101437.33;;;9.07;74.63
44453;BME280;30155;52.164;21.236;2023-05-18T05:30:38;101443.27;;;9.14;74.05
44453;BME280;30155;52.164;21.236;2023-05-18T05:35:31;101438.55;;;9.28;74.19
44453;BME280;30155;52.164;21.236;2023-05-18T05:40:25;101444.58;;;9.38;73.54
44453;BME280;30155;52.164;21.236;2023-05-18T05:45:18;101450.45;;;9.43;73.14
44453;BME280;30155;52.164;21.236;2023-05-18T05:50:15;101454.98;;;9.44;72.92
44453;BME280;30155;52.164;21.236;2023-05-18T05:55:10;101454.39;;;9.57;73.15
44453;BME280;30155;52.164;21.236;2023-05-18T06:00:04;101454.55;;;9.68;72.74
44453;BME280;30155;52.164;21.236;2023-05-18T06:05:21;101453.73;;;9.69;72.06
44453;BME280;30155;52.164;21.236;2023-05-18T06:10:15;101459.59;;;9.68;72.08
44453;BME280;30155;52.164;21.236;2023-05-18T06:15:08;101464.23;;;9.73;72.03
44453;BME280;30155;52.164;21.236;2023-05-18T06:20:04;101466.48;;;9.83;71.71
44453;BME280;30155;52.164;21.236;2023-05-18T06:24:58;101464.77;;;9.89;71.48
44453;BME280;30155;52.164;21.236;2023-05-18T06:30:02;101466.81;;;9.99;71.07
44453;BME280;30155;52.164;21.236;2023-05-18T06:35:21;101471.62;;;10.09;70.51
44453;BME280;30155;52.164;21.236;2023-05-18T06:40:14;101467.41;;;10.13;70.67
44453;BME280;30155;52.164;21.236;2023-05-18T06:45:08;101474.77;;;10.22;70.43
44453;BME280;30155;52.164;21.236;2023-05-18T06:50:12;101481.67;;;10.26;70.14
44453;BME280;30155;52.164;21.236;2023-05-18T06:55:06;101481.51;;;10.37;70.33
44453;BME280;30155;52.164;21.236;2023-05-18T06:59:59;101484.66;;;10.50;69.91
44453;BME280;30155;52.164;21.236;2023-05-18T07:04:54;101488.02;;;10.52;69.27
44453;BME280;30155;52.164;21.236;2023-05-18T07:09:47;101496.30;;;10.62;69.04
44453;BME280;30155;52.164;21.236;2023-05-18T07:14:40;101495.67;;;10.77;68.90
44453;BME280;30155;52.164;21.236;2023-05-18T07:19:33;101497.13;;;10.92;68.42
44453;BME280;30155;52.164;21.236;2023-05-18T07:24:26;101502.18;;;11.05;68.18
44453;BME280;30155;52.164;21.236;2023-05-18T07:29:19;101503.86;;;11.16;67.97
44453;BME280;30155;52.164;21.236;2023-05-18T07:34:12;101511.44;;;11.20;67.20
44453;BME280;30155;52.164;21.236;2023-05-18T07:39:05;101514.94;;;11.28;67.20
44453;BME280;30155;52.164;21.236;2023-05-18T07:43:58;101516.11;;;11.39;66.65
44453;BME280;30155;52.164;21.236;2023-05-18T07:48:51;101511.27;;;11.46;66.28
44453;BME280;30155;52.164;21.236;2023-05-18T07:53:44;101518.33;;;11.57;66.23
44453;BME280;30155;52.164;21.236;2023-05-18T07:58:39;101520.64;;;11.74;66.19
44453;BME280;30155;52.164;21.236;2023-05-18T08:03:32;101522.64;;;11.77;65.20
44453;BME280;30155;52.164;21.236;2023-05-18T08:08:25;101527.00;;;11.78;64.92
44453;BME280;30155;52.164;21.236;2023-05-18T08:13:18;101529.93;;;11.91;65.00
44453;BME280;30155;52.164;21.236;2023-05-18T08:18:11;101525.89;;;12.02;64.38
44453;BME280;30155;52.164;21.236;2023-05-18T08:23:05;101525.48;;;12.07;64.08
44453;BME280;30155;52.164;21.236;2023-05-18T08:27:58;101534.04;;;12.09;63.79
44453;BME280;30155;52.164;21.236;2023-05-18T08:32:51;101533.31;;;12.14;63.83
44453;BME280;30155;52.164;21.236;2023-05-18T08:37:44;101533.66;;;12.23;63.83
44453;BME280;30155;52.164;21.236;2023-05-18T08:43:02;101534.91;;;12.40;63.77
44453;BME280;30155;52.164;21.236;2023-05-18T08:47:55;101533.58;;;12.58;63.72
44453;BME280;30155;52.164;21.236;2023-05-18T08:52:54;101538.05;;;12.64;63.28
44453;BME280;30155;52.164;21.236;2023-05-18T08:57:51;101531.55;;;12.76;62.98
44453;BME280;30155;52.164;21.236;2023-05-18T09:02:47;101530.64;;;12.83;62.50
44453;BME280;30155;52.164;21.236;2023-05-18T09:07:41;101532.27;;;13.03;62.88
44453;BME280;30155;52.164;21.236;2023-05-18T09:12:35;101533.48;;;13.29;62.71
44453;BME280;30155;52.164;21.236;2023-05-18T09:17:28;101533.11;;;13.56;62.31
44453;BME280;30155;52.164;21.236;2023-05-18T09:22:21;101531.10;;;13.70;62.22
44453;BME280;30155;52.164;21.236;2023-05-18T09:27:14;101534.87;;;13.67;61.40
44453;BME280;30155;52.164;21.236;2023-05-18T09:32:09;101529.61;;;13.76;61.45
44453;BME280;30155;52.164;21.236;2023-05-18T09:37:02;101530.08;;;13.72;61.08
44453;BME280;30155;52.164;21.236;2023-05-18T09:41:55;101530.35;;;13.89;61.92
44453;BME280;30155;52.164;21.236;2023-05-18T09:46:54;101534.49;;;14.08;61.51
44453;BME280;30155;52.164;21.236;2023-05-18T09:51:47;101534.30;;;14.19;61.08
44453;BME280;30155;52.164;21.236;2023-05-18T09:56:40;101538.20;;;14.34;60.64
44453;BME280;30155;52.164;21.236;2023-05-18T10:02:03;101535.51;;;14.42;59.95
44453;BME280;30155;52.164;21.236;2023-05-18T10:06:59;101533.94;;;14.78;59.24
44453;BME280;30155;52.164;21.236;2023-05-18T10:11:53;101535.81;;;15.19;59.13
44453;BME280;30155;52.164;21.236;2023-05-18T10:16:46;101534.88;;;15.46;57.83
44453;BME280;30155;52.164;21.236;2023-05-18T10:21:45;101530.85;;;15.64;57.57
44453;BME280;30155;52.164;21.236;2023-05-18T10:26:39;101528.36;;;15.96;57.84
44453;BME280;30155;52.164;21.236;2023-05-18T10:31:36;101525.64;;;16.10;56.53
44453;BME280;30155;52.164;21.236;2023-05-18T10:36:30;101524.84;;;16.17;56.37
44453;BME280;30155;52.164;21.236;2023-05-18T10:41:26;101521.87;;;16.18;55.71
44453;BME280;30155;52.164;21.236;2023-05-18T10:46:22;101524.34;;;15.97;55.40
44453;BME280;30155;52.164;21.236;2023-05-18T10:51:17;101525.19;;;15.94;56.09
44453;BME280;30155;52.164;21.236;2023-05-18T10:56:14;101521.96;;;16.06;55.95
44453;BME280;30155;52.164;21.236;2023-05-18T11:01:09;101520.95;;;16.37;56.04
44453;BME280;30155;52.164;21.236;2023-05-18T11:06:11;101520.33;;;16.53;55.26
44453;BME280;30155;52.164;21.236;2023-05-18T11:11:05;101519.96;;;16.52;55.35
44453;BME280;30155;52.164;21.236;2023-05-18T11:20:51;101525.50;;;16.38;54.35
44453;BME280;30155;52.164;21.236;2023-05-18T11:25:47;101519.39;;;16.40;55.14
44453;BME280;30155;52.164;21.236;2023-05-18T11:35:33;101518.81;;;16.33;54.44
44453;BME280;30155;52.164;21.236;2023-05-18T11:40:44;101515.73;;;16.18;53.83
44453;BME280;30155;52.164;21.236;2023-05-18T11:45:51;101515.50;;;16.08;53.91
44453;BME280;30155;52.164;21.236;2023-05-18T11:50:45;101521.82;;;16.11;53.99
44453;BME280;30155;52.164;21.236;2023-05-18T11:55:40;101517.83;;;16.15;54.09
44453;BME280;30155;52.164;21.236;2023-05-18T12:00:33;101514.77;;;16.29;53.79
44453;BME280;30155;52.164;21.236;2023-05-18T12:05:31;101516.84;;;16.25;53.45
44453;BME280;30155;52.164;21.236;2023-05-18T12:10:27;101518.91;;;16.21;53.60
44453;BME280;30155;52.164;21.236;2023-05-18T12:15:22;101521.91;;;16.26;53.85
44453;BME280;30155;52.164;21.236;2023-05-18T12:25:10;101519.73;;;16.12;53.49
44453;BME280;30155;52.164;21.236;2023-05-18T12:30:03;101520.16;;;15.99;53.84
44453;BME280;30155;52.164;21.236;2023-05-18T12:34:57;101516.31;;;15.98;53.69
44453;BME280;30155;52.164;21.236;2023-05-18T12:39:53;101519.10;;;15.97;53.51
44453;BME280;30155;52.164;21.236;2023-05-18T12:44:45;101519.83;;;15.79;53.50
44453;BME280;30155;52.164;21.236;2023-05-18T12:49:42;101519.73;;;15.72;53.58
44453;BME280;30155;52.164;21.236;2023-05-18T12:54:54;101523.16;;;15.64;53.57
44453;BME280;30155;52.164;21.236;2023-05-18T12:59:51;101527.14;;;15.61;53.94
44453;BME280;30155;52.164;21.236;2023-05-18T13:04:45;101527.65;;;15.57;53.88
44453;BME280;30155;52.164;21.236;2023-05-18T13:09:44;101528.43;;;15.49;52.77
44453;BME280;30155;52.164;21.236;2023-05-18T13:14:38;101529.41;;;15.41;52.61
44453;BME280;30155;52.164;21.236;2023-05-18T13:19:33;101525.94;;;15.44;52.97
44453;BME280;30155;52.164;21.236;2023-05-18T13:24:26;101524.89;;;15.44;52.96
44453;BME280;30155;52.164;21.236;2023-05-18T13:29:19;101521.23;;;15.43;52.83
44453;BME280;30155;52.164;21.236;2023-05-18T13:34:12;101522.16;;;15.33;52.65
44453;BME280;30155;52.164;21.236;2023-05-18T13:39:05;101517.89;;;15.25;52.79
44453;BME280;30155;52.164;21.236;2023-05-18T13:43:58;101516.09;;;15.20;52.78
44453;BME280;30155;52.164;21.236;2023-05-18T13:48:51;101517.29;;;15.18;52.83
44453;BME280;30155;52.164;21.236;2023-05-18T13:53:43;101514.87;;;15.20;53.51
44453;BME280;30155;52.164;21.236;2023-05-18T13:58:36;101516.12;;;15.22;53.60
44453;BME280;30155;52.164;21.236;2023-05-18T14:03:29;101519.59;;;15.20;53.60
44453;BME280;30155;52.164;21.236;2023-05-18T14:08:24;101517.79;;;15.15;53.65
44453;BME280;30155;52.164;21.236;2023-05-18T14:13:17;101519.52;;;15.12;54.24
44453;BME280;30155;52.164;21.236;2023-05-18T14:18:10;101519.65;;;15.11;54.36
44453;BME280;30155;52.164;21.236;2023-05-18T14:23:03;101517.60;;;15.14;54.50
44453;BME280;30155;52.164;21.236;2023-05-18T14:27:59;101515.70;;;15.15;53.77
44453;BME280;30155;52.164;21.236;2023-05-18T14:32:52;101516.49;;;15.07;53.37
44453;BME280;30155;52.164;21.236;2023-05-18T14:37:45;101516.47;;;15.06;53.76
44453;BME280;30155;52.164;21.236;2023-05-18T14:42:38;101516.22;;;15.00;53.05
44453;BME280;30155;52.164;21.236;2023-05-18T14:47:30;101516.30;;;14.92;53.31
44453;BME280;30155;52.164;21.236;2023-05-18T14:52:23;101521.13;;;14.85;53.45
44453;BME280;30155;52.164;21.236;2023-05-18T14:57:16;101519.02;;;14.84;53.91
44453;BME280;30155;52.164;21.236;2023-05-18T15:02:09;101520.21;;;14.82;53.65
44453;BME280;30155;52.164;21.236;2023-05-18T15:07:02;101521.16;;;14.75;53.56
44453;BME280;30155;52.164;21.236;2023-05-18T15:11:56;101519.05;;;14.73;54.21
44453;BME280;30155;52.164;21.236;2023-05-18T15:16:49;101519.39;;;14.72;54.43
44453;BME280;30155;52.164;21.236;2023-05-18T15:21:42;101521.44;;;14.70;54.46
44453;BME280;30155;52.164;21.236;2023-05-18T15:26:35;101523.82;;;14.65;54.36
44453;BME280;30155;52.164;21.236;2023-05-18T15:31:28;101520.04;;;14.57;54.30
44453;BME280;30155;52.164;21.236;2023-05-18T15:36:21;101520.88;;;14.56;54.81
44453;BME280;30155;52.164;21.236;2023-05-18T15:41:15;101523.10;;;14.52;54.74
44453;BME280;30155;52.164;21.236;2023-05-18T15:46:09;101527.56;;;14.46;54.90
44453;BME280;30155;52.164;21.236;2023-05-18T15:51:03;101525.92;;;14.42;54.93
44453;BME280;30155;52.164;21.236;2023-05-18T15:55:55;101527.19;;;14.33;54.83
44453;BME280;30155;52.164;21.236;2023-05-18T16:00:50;101526.96;;;14.17;54.90
44453;BME280;30155;52.164;21.236;2023-05-18T16:05:43;101528.06;;;14.09;55.43
44453;BME280;30155;52.164;21.236;2023-05-18T16:10:36;101525.23;;;14.07;55.69
44453;BME280;30155;52.164;21.236;2023-05-18T16:15:29;101529.91;;;14.04;56.25
44453;BME280;30155;52.164;21.236;2023-05-18T16:20:22;101535.09;;;14.02;56.63
44453;BME280;30155;52.164;21.236;2023-05-18T16:25:17;101530.66;;;13.97;56.92
44453;BME280;30155;52.164;21.236;2023-05-18T16:30:13;101528.23;;;13.87;56.84
44453;BME280;30155;52.164;21.236;2023-05-18T16:35:06;101530.50;;;13.77;58.02
44453;BME280;30155;52.164;21.236;2023-05-18T16:40:00;101528.06;;;13.66;58.60
44453;BME280;30155;52.164;21.236;2023-05-18T16:44:52;101535.73;;;13.57;58.37
44453;BME280;30155;52.164;21.236;2023-05-18T16:49:46;101539.05;;;13.48;57.98
44453;BME280;30155;52.164;21.236;2023-05-18T16:54:40;101540.15;;;13.41;58.17
44453;BME280;30155;52.164;21.236;2023-05-18T16:59:33;101534.12;;;13.34;58.43
44453;BME280;30155;52.164;21.236;2023-05-18T17:04:30;101538.52;;;13.29;59.01
44453;BME280;30155;52.164;21.236;2023-05-18T17:09:24;101544.11;;;13.22;58.82
44453;BME280;30155;52.164;21.236;2023-05-18T17:14:17;101548.38;;;13.17;59.23
44453;BME280;30155;52.164;21.236;2023-05-18T17:19:10;101548.62;;;13.12;59.64
44453;BME280;30155;52.164;21.236;2023-05-18T17:24:03;101550.95;;;13.07;60.41
44453;BME280;30155;52.164;21.236;2023-05-18T17:28:57;101553.63;;;13.01;60.81
44453;BME280;30155;52.164;21.236;2023-05-18T17:33:54;101554.88;;;12.94;60.80
44453;BME280;30155;52.164;21.236;2023-05-18T17:38:47;101558.23;;;12.88;61.81
44453;BME280;30155;52.164;21.236;2023-05-18T17:43:40;101559.27;;;12.80;62.45
44453;BME280;30155;52.164;21.236;2023-05-18T17:48:33;101562.59;;;12.72;62.70
44453;BME280;30155;52.164;21.236;2023-05-18T17:53:26;101563.10;;;12.63;63.21
44453;BME280;30155;52.164;21.236;2023-05-18T17:58:19;101566.38;;;12.54;63.61
44453;BME280;30155;52.164;21.236;2023-05-18T18:03:12;101570.55;;;12.47;63.78
44453;BME280;30155;52.164;21.236;2023-05-18T18:08:05;101571.98;;;12.41;64.50
44453;BME280;30155;52.164;21.236;2023-05-18T18:12:58;101578.45;;;12.35;64.70
44453;BME280;30155;52.164;21.236;2023-05-18T18:17:52;101576.21;;;12.29;65.52
44453;BME280;30155;52.164;21.236;2023-05-18T18:22:45;101576.10;;;12.24;66.03
44453;BME280;30155;52.164;21.236;2023-05-18T18:27:38;101577.13;;;12.15;66.13
44453;BME280;30155;52.164;21.236;2023-05-18T18:32:32;101580.05;;;12.07;66.01
44453;BME280;30155;52.164;21.236;2023-05-18T18:37:26;101583.56;;;12.02;66.28
44453;BME280;30155;52.164;21.236;2023-05-18T18:42:19;101587.19;;;12.01;67.10
44453;BME280;30155;52.164;21.236;2023-05-18T18:47:12;101590.24;;;11.98;67.59
44453;BME280;30155;52.164;21.236;2023-05-18T18:52:06;101598.08;;;11.92;67.95
44453;BME280;30155;52.164;21.236;2023-05-18T18:56:59;101600.61;;;11.83;68.43
44453;BME280;30155;52.164;21.236;2023-05-18T19:01:52;101602.16;;;11.76;68.86
44453;BME280;30155;52.164;21.236;2023-05-18T19:06:46;101603.91;;;11.70;69.34
44453;BME280;30155;52.164;21.236;2023-05-18T19:11:39;101605.27;;;11.62;69.69
44453;BME280;30155;52.164;21.236;2023-05-18T19:16:32;101607.73;;;11.57;70.05
44453;BME280;30155;52.164;21.236;2023-05-18T19:21:25;101608.16;;;11.54;70.40
44453;BME280;30155;52.164;21.236;2023-05-18T19:26:19;101608.02;;;11.49;70.66
44453;BME280;30155;52.164;21.236;2023-05-18T19:31:13;101609.04;;;11.41;71.15
44453;BME280;30155;52.164;21.236;2023-05-18T19:36:06;101610.70;;;11.33;71.45
44453;BME280;30155;52.164;21.236;2023-05-18T19:41:00;101610.98;;;11.30;71.85
44453;BME280;30155;52.164;21.236;2023-05-18T19:45:53;101612.98;;;11.27;72.07
44453;BME280;30155;52.164;21.236;2023-05-18T19:50:46;101612.80;;;11.27;72.10
44453;BME280;30155;52.164;21.236;2023-05-18T19:55:39;101614.97;;;11.30;72.45
44453;BME280;30155;52.164;21.236;2023-05-18T20:00:32;101611.20;;;11.31;72.75
44453;BME280;30155;52.164;21.236;2023-05-18T20:05:25;101615.48;;;11.29;72.85
44453;BME280;30155;52.164;21.236;2023-05-18T20:10:18;101619.60;;;11.28;73.26
44453;BME280;30155;52.164;21.236;2023-05-18T20:15:11;101619.60;;;11.28;73.50
44453;BME280;30155;52.164;21.236;2023-05-18T20:20:08;101626.00;;;11.27;73.53
44453;BME280;30155;52.164;21.236;2023-05-18T20:25:05;101624.05;;;11.26;73.75
44453;BME280;30155;52.164;21.236;2023-05-18T20:29:58;101627.87;;;11.26;73.78
44453;BME280;30155;52.164;21.236;2023-05-18T20:34:51;101632.75;;;11.27;74.03
44453;BME280;30155;52.164;21.236;2023-05-18T20:39:44;101635.54;;;11.27;74.27
44453;BME280;30155;52.164;21.236;2023-05-18T20:44:41;101634.60;;;11.24;74.18
44453;BME280;30155;52.164;21.236;2023-05-18T20:49:34;101636.14;;;11.23;74.39
44453;BME280;30155;52.164;21.236;2023-05-18T20:54:27;101644.27;;;11.22;74.50
44453;BME280;30155;52.164;21.236;2023-05-18T20:59:20;101646.33;;;11.22;74.65
44453;BME280;30155;52.164;21.236;2023-05-18T21:04:13;101643.66;;;11.20;74.73
44453;BME280;30155;52.164;21.236;2023-05-18T21:09:10;101648.98;;;11.17;74.98
44453;BME280;30155;52.164;21.236;2023-05-18T21:14:04;101651.52;;;11.15;75.17
44453;BME280;30155;52.164;21.236;2023-05-18T21:18:59;101659.46;;;11.14;75.34
44453;BME280;30155;52.164;21.236;2023-05-18T21:23:52;101662.86;;;11.12;75.45
44453;BME280;30155;52.164;21.236;2023-05-18T21:28:45;101661.22;;;11.09;75.43
44453;BME280;30155;52.164;21.236;2023-05-18T21:33:40;101661.81;;;11.05;75.60
44453;BME280;30155;52.164;21.236;2023-05-18T21:38:38;101667.86;;;11.05;75.69
44453;BME280;30155;52.164;21.236;2023-05-18T21:43:30;101670.05;;;11.03;75.84
44453;BME280;30155;52.164;21.236;2023-05-18T21:48:24;101673.26;;;11.00;75.88
44453;BME280;30155;52.164;21.236;2023-05-18T21:53:17;101676.16;;;10.98;75.91
44453;BME280;30155;52.164;21.236;2023-05-18T21:58:10;101682.34;;;10.96;75.65
44453;BME280;30155;52.164;21.236;2023-05-18T22:03:04;101684.75;;;10.96;75.60
44453;BME280;30155;52.164;21.236;2023-05-18T22:07:57;101682.47;;;10.95;75.33
44453;BME280;30155;52.164;21.236;2023-05-18T22:12:50;101685.18;;;10.93;75.23
44453;BME280;30155;52.164;21.236;2023-05-18T22:17:43;101689.93;;;10.89;75.29
44453;BME280;30155;52.164;21.236;2023-05-18T22:22:37;101693.83;;;10.86;75.41
44453;BME280;30155;52.164;21.236;2023-05-18T22:27:30;101692.35;;;10.83;75.47
44453;BME280;30155;52.164;21.236;2023-05-18T22:32:24;101691.92;;;10.81;75.67
44453;BME280;30155;52.164;21.236;2023-05-18T22:37:17;101693.43;;;10.79;75.84
44453;BME280;30155;52.164;21.236;2023-05-18T22:42:10;101690.60;;;10.77;76.04
44453;BME280;30155;52.164;21.236;2023-05-18T22:47:03;101685.29;;;10.74;76.27
44453;BME280;30155;52.164;21.236;2023-05-18T22:51:56;101687.41;;;10.69;76.62
44453;BME280;30155;52.164;21.236;2023-05-18T22:56:52;101691.90;;;10.63;76.91
44453;BME280;30155;52.164;21.236;2023-05-18T23:01:46;101689.46;;;10.63;77.13
44453;BME280;30155;52.164;21.236;2023-05-18T23:06:43;101685.17;;;10.64;77.12
44453;BME280;30155;52.164;21.236;2023-05-18T23:11:40;101679.67;;;10.66;77.19
44453;BME280;30155;52.164;21.236;2023-05-18T23:16:35;101677.72;;;10.64;77.40
44453;BME280;30155;52.164;21.236;2023-05-18T23:21:28;101676.89;;;10.60;77.48
44453;BME280;30155;52.164;21.236;2023-05-18T23:26:22;101675.14;;;10.60;77.82
44453;BME280;30155;52.164;21.236;2023-05-18T23:31:15;101676.00;;;10.60;77.47
44453;BME280;30155;52.164;21.236;2023-05-18T23:36:09;101670.09;;;10.59;77.75
44453;BME280;30155;52.164;21.236;2023-05-18T23:41:06;101667.83;;;10.59;77.97
44453;BME280;30155;52.164;21.236;2023-05-18T23:45:59;101671.27;;;10.58;77.83
44453;BME280;30155;52.164;21.236;2023-05-18T23:50:53;101671.73;;;10.56;77.82
44453;BME280;30155;52.164;21.236;2023-05-18T23:55:48;101668.91;;;10.55;78.05
